sensor_id;sensor_type;location;lat;lon;timestamp;P1;durP1;ratioP1;P2;durP2;ratioP2
15905;SDS011;8051;50.820;4.884;2022-12-18T00:00:02;60.90;;;45.50;;
15905;SDS011;8051;50.820;4.884;2022-12-18T00:02:31;54.37;;;43.43;;
15905;SDS011;8051;50.820;4.884;2022-12-18T00:04:58;53.10;;;43.30;;
15905;SDS011;8051;50.820;4.884;2022-12-18T00:07:26;59.70;;;42.37;;
15905;SDS011;8051;50.820;4.884;2022-12-18T00:09:53;60.33;;;44.87;;
15905;SDS011;8051;50.820;4.884;2022-12-18T00:12:21;48.20;;;42.33;;
15905;SDS011;8051;50.820;4.884;2022-12-18T00:14:50;69.47;;;47.23;;
15905;SDS011;8051;50.820;4.884;2022-12-18T00:17:17;71.03;;;47.93;;
15905;SDS011;8051;50.820;4.884;2022-12-18T00:19:44;54.00;;;45.93;;
15905;SDS011;8051;50.820;4.884;2022-12-18T00:22:12;54.87;;;42.13;;
15905;SDS011;8051;50.820;4.884;2022-12-18T00:24:44;57.90;;;44.57;;
15905;SDS011;8051;50.820;4.884;2022-12-18T00:27:11;50.57;;;41.77;;
15905;SDS011;8051;50.820;4.884;2022-12-18T00:29:39;51.73;;;40.97;;
15905;SDS011;8051;50.820;4.884;2022-12-18T00:32:07;59.13;;;44.57;;
15905;SDS011;8051;50.820;4.884;2022-12-18T00:34:35;52.43;;;43.10;;
15905;SDS011;8051;50.820;4.884;2022-12-18T00:37:02;63.83;;;43.43;;
15905;SDS011;8051;50.820;4.884;2022-12-18T00:39:30;57.63;;;42.40;;
15905;SDS011;8051;50.820;4.884;2022-12-18T00:41:57;54.07;;;41.10;;
15905;SDS011;8051;50.820;4.884;2022-12-18T00:44:41;55.00;;;42.23;;
15905;SDS011;8051;50.820;4.884;2022-12-18T00:47:10;56.20;;;43.60;;
15905;SDS011;8051;50.820;4.884;2022-12-18T00:49:38;54.70;;;42.90;;
15905;SDS011;8051;50.820;4.884;2022-12-18T00:52:05;57.47;;;44.03;;
15905;SDS011;8051;50.820;4.884;2022-12-18T00:54:33;46.23;;;41.37;;
15905;SDS011;8051;50.820;4.884;2022-12-18T00:57:00;59.00;;;41.37;;
15905;SDS011;8051;50.820;4.884;2022-12-18T00:59:27;61.13;;;41.80;;
15905;SDS011;8051;50.820;4.884;2022-12-18T01:01:55;49.57;;;39.63;;
15905;SDS011;8051;50.820;4.884;2022-12-18T01:04:24;60.43;;;42.73;;
15905;SDS011;8051;50.820;4.884;2022-12-18T01:06:51;49.93;;;40.60;;
15905;SDS011;8051;50.820;4.884;2022-12-18T01:09:19;54.47;;;43.20;;
15905;SDS011;8051;50.820;4.884;2022-12-18T01:11:48;53.20;;;43.27;;
15905;SDS011;8051;50.820;4.884;2022-12-18T01:14:15;53.33;;;42.63;;
15905;SDS011;8051;50.820;4.884;2022-12-18T01:16:43;49.50;;;41.03;;
15905;SDS011;8051;50.820;4.884;2022-12-18T01:19:10;56.13;;;42.50;;
15905;SDS011;8051;50.820;4.884;2022-12-18T01:21:39;53.00;;;43.53;;
15905;SDS011;8051;50.820;4.884;2022-12-18T01:24:07;60.77;;;43.27;;
15905;SDS011;8051;50.820;4.884;2022-12-18T01:26:38;61.87;;;42.13;;
15905;SDS011;8051;50.820;4.884;2022-12-18T01:29:05;53.13;;;43.23;;
15905;SDS011;8051;50.820;4.884;2022-12-18T01:31:33;57.23;;;44.90;;
15905;SDS011;8051;50.820;4.884;2022-12-18T01:34:01;53.43;;;42.17;;
15905;SDS011;8051;50.820;4.884;2022-12-18T01:36:29;57.70;;;42.23;;
15905;SDS011;8051;50.820;4.884;2022-12-18T01:39:00;58.17;;;42.40;;
15905;SDS011;8051;50.820;4.884;2022-12-18T01:41:30;55.77;;;45.10;;
15905;SDS011;8051;50.820;4.884;2022-12-18T01:47:28;47.03;;;39.67;;
15905;SDS011;8051;50.820;4.884;2022-12-18T01:50:00;50.70;;;39.70;;
15905;SDS011;8051;50.820;4.884;2022-12-18T01:52:31;54.77;;;40.57;;
15905;SDS011;8051;50.820;4.884;2022-12-18T01:55:01;52.60;;;42.33;;
15905;SDS011;8051;50.820;4.884;2022-12-18T01:57:31;49.90;;;40.40;;
15905;SDS011;8051;50.820;4.884;2022-12-18T02:00:00;47.33;;;36.70;;
15905;SDS011;8051;50.820;4.884;2022-12-18T02:02:30;48.03;;;38.27;;
15905;SDS011;8051;50.820;4.884;2022-12-18T02:04:58;43.67;;;36.03;;
15905;SDS011;8051;50.820;4.884;2022-12-18T02:07:28;45.13;;;36.63;;
15905;SDS011;8051;50.820;4.884;2022-12-18T02:10:06;41.93;;;36.00;;
15905;SDS011;8051;50.820;4.884;2022-12-18T02:12:42;40.40;;;36.03;;
15905;SDS011;8051;50.820;4.884;2022-12-18T02:15:16;41.67;;;36.77;;
15905;SDS011;8051;50.820;4.884;2022-12-18T02:17:52;36.67;;;32.87;;
15905;SDS011;8051;50.820;4.884;2022-12-18T02:20:24;42.57;;;35.43;;
15905;SDS011;8051;50.820;4.884;2022-12-18T02:23:05;41.37;;;34.87;;
15905;SDS011;8051;50.820;4.884;2022-12-18T02:25:51;42.53;;;34.80;;
15905;SDS011;8051;50.820;4.884;2022-12-18T02:28:30;37.83;;;33.70;;
15905;SDS011;8051;50.820;4.884;2022-12-18T02:31:01;42.13;;;33.40;;
15905;SDS011;8051;50.820;4.884;2022-12-18T02:33:31;39.50;;;35.13;;
15905;SDS011;8051;50.820;4.884;2022-12-18T02:36:01;41.13;;;34.70;;
15905;SDS011;8051;50.820;4.884;2022-12-18T02:38:30;41.30;;;34.80;;
15905;SDS011;8051;50.820;4.884;2022-12-18T02:41:00;43.80;;;34.90;;
15905;SDS011;8051;50.820;4.884;2022-12-18T02:43:29;37.77;;;33.00;;
15905;SDS011;8051;50.820;4.884;2022-12-18T02:45:57;41.13;;;34.13;;
15905;SDS011;8051;50.820;4.884;2022-12-18T02:48:27;35.90;;;31.83;;
15905;SDS011;8051;50.820;4.884;2022-12-18T02:50:59;36.43;;;32.33;;
15905;SDS011;8051;50.820;4.884;2022-12-18T02:53:37;40.17;;;32.63;;
15905;SDS011;8051;50.820;4.884;2022-12-18T02:56:13;36.03;;;32.23;;
15905;SDS011;8051;50.820;4.884;2022-12-18T02:58:46;37.37;;;33.30;;
15905;SDS011;8051;50.820;4.884;2022-12-18T03:01:26;37.57;;;32.27;;
15905;SDS011;8051;50.820;4.884;2022-12-18T03:03:59;43.47;;;34.57;;
15905;SDS011;8051;50.820;4.884;2022-12-18T03:06:31;37.40;;;32.70;;
15905;SDS011;8051;50.820;4.884;2022-12-18T03:09:04;38.23;;;33.10;;
15905;SDS011;8051;50.820;4.884;2022-12-18T03:11:38;36.50;;;32.63;;
15905;SDS011;8051;50.820;4.884;2022-12-18T03:14:26;36.87;;;32.47;;
15905;SDS011;8051;50.820;4.884;2022-12-18T03:16:57;39.50;;;35.30;;
15905;SDS011;8051;50.820;4.884;2022-12-18T03:19:29;38.17;;;34.13;;
15905;SDS011;8051;50.820;4.884;2022-12-18T03:22:00;36.67;;;32.80;;
15905;SDS011;8051;50.820;4.884;2022-12-18T03:24:30;41.07;;;34.60;;
15905;SDS011;8051;50.820;4.884;2022-12-18T03:27:01;40.17;;;33.03;;
15905;SDS011;8051;50.820;4.884;2022-12-18T03:29:33;44.57;;;34.07;;
15905;SDS011;8051;50.820;4.884;2022-12-18T03:32:05;35.60;;;31.53;;
15905;SDS011;8051;50.820;4.884;2022-12-18T03:34:37;37.17;;;33.53;;
15905;SDS011;8051;50.820;4.884;2022-12-18T03:37:06;37.97;;;33.87;;
15905;SDS011;8051;50.820;4.884;2022-12-18T03:39:34;36.03;;;32.30;;
15905;SDS011;8051;50.820;4.884;2022-12-18T03:42:05;34.33;;;30.63;;
15905;SDS011;8051;50.820;4.884;2022-12-18T03:44:39;34.93;;;31.23;;
15905;SDS011;8051;50.820;4.884;2022-12-18T03:47:13;36.47;;;32.87;;
15905;SDS011;8051;50.820;4.884;2022-12-18T03:49:45;35.50;;;31.67;;
15905;SDS011;8051;50.820;4.884;2022-12-18T03:52:17;37.20;;;33.20;;
15905;SDS011;8051;50.820;4.884;2022-12-18T03:54:49;35.67;;;32.03;;
15905;SDS011;8051;50.820;4.884;2022-12-18T03:57:21;38.63;;;32.40;;
15905;SDS011;8051;50.820;4.884;2022-12-18T03:59:50;40.23;;;34.20;;
15905;SDS011;8051;50.820;4.884;2022-12-18T04:02:22;37.97;;;32.23;;
15905;SDS011;8051;50.820;4.884;2022-12-18T04:04:51;37.50;;;33.57;;
15905;SDS011;8051;50.820;4.884;2022-12-18T04:07:21;42.07;;;33.73;;
15905;SDS011;8051;50.820;4.884;2022-12-18T04:09:49;43.60;;;35.77;;
15905;SDS011;8051;50.820;4.884;2022-12-18T04:12:21;36.40;;;32.90;;
15905;SDS011;8051;50.820;4.884;2022-12-18T04:14:51;38.77;;;32.57;;
15905;SDS011;8051;50.820;4.884;2022-12-18T04:17:18;39.77;;;34.23;;
15905;SDS011;8051;50.820;4.884;2022-12-18T04:19:46;37.73;;;33.63;;
15905;SDS011;8051;50.820;4.884;2022-12-18T04:22:14;34.27;;;30.10;;
15905;SDS011;8051;50.820;4.884;2022-12-18T04:24:41;41.67;;;33.37;;
15905;SDS011;8051;50.820;4.884;2022-12-18T04:27:09;40.00;;;33.33;;
15905;SDS011;8051;50.820;4.884;2022-12-18T04:29:37;40.83;;;34.40;;
15905;SDS011;8051;50.820;4.884;2022-12-18T04:32:05;42.20;;;33.30;;
15905;SDS011;8051;50.820;4.884;2022-12-18T04:34:33;47.27;;;33.37;;
15905;SDS011;8051;50.820;4.884;2022-12-18T04:37:00;37.90;;;33.90;;
15905;SDS011;8051;50.820;4.884;2022-12-18T04:39:28;39.00;;;33.13;;
15905;SDS011;8051;50.820;4.884;2022-12-18T04:41:55;39.27;;;33.57;;
15905;SDS011;8051;50.820;4.884;2022-12-18T04:44:26;39.57;;;31.57;;
15905;SDS011;8051;50.820;4.884;2022-12-18T04:46:55;50.47;;;36.53;;
15905;SDS011;8051;50.820;4.884;2022-12-18T04:49:22;34.70;;;31.20;;
15905;SDS011;8051;50.820;4.884;2022-12-18T04:51:50;42.63;;;32.30;;
15905;SDS011;8051;50.820;4.884;2022-12-18T04:54:18;36.87;;;33.17;;
15905;SDS011;8051;50.820;4.884;2022-12-18T04:56:45;35.70;;;32.07;;
15905;SDS011;8051;50.820;4.884;2022-12-18T04:59:13;36.47;;;32.67;;
15905;SDS011;8051;50.820;4.884;2022-12-18T05:01:41;39.20;;;32.27;;
15905;SDS011;8051;50.820;4.884;2022-12-18T05:04:10;37.70;;;31.87;;
15905;SDS011;8051;50.820;4.884;2022-12-18T05:06:37;36.93;;;32.90;;
15905;SDS011;8051;50.820;4.884;2022-12-18T05:09:05;35.57;;;31.63;;
15905;SDS011;8051;50.820;4.884;2022-12-18T05:11:32;40.60;;;32.83;;
15905;SDS011;8051;50.820;4.884;2022-12-18T05:14:03;35.13;;;30.23;;
15905;SDS011;8051;50.820;4.884;2022-12-18T05:16:30;37.53;;;31.80;;
15905;SDS011;8051;50.820;4.884;2022-12-18T05:18:57;35.73;;;31.97;;
15905;SDS011;8051;50.820;4.884;2022-12-18T05:21:26;35.03;;;31.47;;
15905;SDS011;8051;50.820;4.884;2022-12-18T05:23:54;35.83;;;32.23;;
15905;SDS011;8051;50.820;4.884;2022-12-18T05:26:21;34.57;;;31.17;;
15905;SDS011;8051;50.820;4.884;2022-12-18T05:28:49;34.87;;;31.40;;
15905;SDS011;8051;50.820;4.884;2022-12-18T05:31:16;38.47;;;34.47;;
15905;SDS011;8051;50.820;4.884;2022-12-18T05:33:44;39.00;;;31.90;;
15905;SDS011;8051;50.820;4.884;2022-12-18T05:36:11;36.50;;;32.43;;
15905;SDS011;8051;50.820;4.884;2022-12-18T05:38:40;40.80;;;33.43;;
15905;SDS011;8051;50.820;4.884;2022-12-18T05:41:08;37.13;;;33.37;;
15905;SDS011;8051;50.820;4.884;2022-12-18T05:43:36;36.50;;;32.73;;
15905;SDS011;8051;50.820;4.884;2022-12-18T05:46:04;37.27;;;33.33;;
15905;SDS011;8051;50.820;4.884;2022-12-18T05:48:32;35.23;;;31.83;;
15905;SDS011;8051;50.820;4.884;2022-12-18T05:51:03;37.93;;;32.70;;
15905;SDS011;8051;50.820;4.884;2022-12-18T05:53:33;33.73;;;30.53;;
15905;SDS011;8051;50.820;4.884;2022-12-18T05:56:06;38.63;;;34.83;;
15905;SDS011;8051;50.820;4.884;2022-12-18T05:58:34;35.33;;;31.60;;
15905;SDS011;8051;50.820;4.884;2022-12-18T06:01:06;35.77;;;31.93;;
15905;SDS011;8051;50.820;4.884;2022-12-18T06:03:35;34.23;;;30.60;;
15905;SDS011;8051;50.820;4.884;2022-12-18T06:06:03;37.10;;;33.20;;
15905;SDS011;8051;50.820;4.884;2022-12-18T06:08:38;37.47;;;33.47;;
15905;SDS011;8051;50.820;4.884;2022-12-18T06:11:07;37.33;;;31.87;;
15905;SDS011;8051;50.820;4.884;2022-12-18T06:13:34;39.17;;;33.37;;
15905;SDS011;8051;50.820;4.884;2022-12-18T06:16:03;42.53;;;34.00;;
15905;SDS011;8051;50.820;4.884;2022-12-18T06:18:31;35.07;;;31.73;;
15905;SDS011;8051;50.820;4.884;2022-12-18T06:20:59;37.80;;;34.03;;
15905;SDS011;8051;50.820;4.884;2022-12-18T06:23:27;41.57;;;35.23;;
15905;SDS011;8051;50.820;4.884;2022-12-18T06:25:54;37.53;;;33.73;;
15905;SDS011;8051;50.820;4.884;2022-12-18T06:28:23;38.17;;;34.07;;
15905;SDS011;8051;50.820;4.884;2022-12-18T06:30:50;35.73;;;32.37;;
15905;SDS011;8051;50.820;4.884;2022-12-18T06:33:18;35.93;;;32.33;;
15905;SDS011;8051;50.820;4.884;2022-12-18T06:35:45;38.90;;;35.07;;
15905;SDS011;8051;50.820;4.884;2022-12-18T06:38:13;36.87;;;33.27;;
15905;SDS011;8051;50.820;4.884;2022-12-18T06:40:43;37.10;;;33.50;;
15905;SDS011;8051;50.820;4.884;2022-12-18T06:43:11;36.00;;;32.13;;
15905;SDS011;8051;50.820;4.884;2022-12-18T06:45:40;39.07;;;35.03;;
15905;SDS011;8051;50.820;4.884;2022-12-18T06:48:07;38.27;;;34.50;;
15905;SDS011;8051;50.820;4.884;2022-12-18T06:50:34;34.07;;;30.77;;
15905;SDS011;8051;50.820;4.884;2022-12-18T06:53:02;38.97;;;34.80;;
15905;SDS011;8051;50.820;4.884;2022-12-18T06:55:29;39.00;;;35.13;;
15905;SDS011;8051;50.820;4.884;2022-12-18T06:57:57;43.37;;;34.80;;
15905;SDS011;8051;50.820;4.884;2022-12-18T07:00:25;37.60;;;33.53;;
15905;SDS011;8051;50.820;4.884;2022-12-18T07:02:54;34.97;;;31.87;;
15905;SDS011;8051;50.820;4.884;2022-12-18T07:05:21;36.13;;;32.60;;
15905;SDS011;8051;50.820;4.884;2022-12-18T07:07:49;36.60;;;32.97;;
15905;SDS011;8051;50.820;4.884;2022-12-18T07:10:16;38.17;;;34.03;;
15905;SDS011;8051;50.820;4.884;2022-12-18T07:12:43;45.63;;;33.93;;
15905;SDS011;8051;50.820;4.884;2022-12-18T07:15:11;35.13;;;31.63;;
15905;SDS011;8051;50.820;4.884;2022-12-18T07:17:41;37.37;;;33.63;;
15905;SDS011;8051;50.820;4.884;2022-12-18T07:20:10;38.63;;;34.63;;
15905;SDS011;8051;50.820;4.884;2022-12-18T07:22:38;40.67;;;36.17;;
15905;SDS011;8051;50.820;4.884;2022-12-18T07:25:06;39.57;;;35.47;;
15905;SDS011;8051;50.820;4.884;2022-12-18T07:27:34;39.10;;;35.43;;
15905;SDS011;8051;50.820;4.884;2022-12-18T07:30:02;41.87;;;34.77;;
15905;SDS011;8051;50.820;4.884;2022-12-18T07:32:30;36.73;;;32.90;;
15905;SDS011;8051;50.820;4.884;2022-12-18T07:34:57;38.17;;;34.23;;
15905;SDS011;8051;50.820;4.884;2022-12-18T07:37:27;38.33;;;32.63;;
15905;SDS011;8051;50.820;4.884;2022-12-18T07:39:55;38.77;;;34.67;;
15905;SDS011;8051;50.820;4.884;2022-12-18T07:42:22;44.80;;;35.23;;
15905;SDS011;8051;50.820;4.884;2022-12-18T07:44:59;37.63;;;33.80;;
15905;SDS011;8051;50.820;4.884;2022-12-18T07:47:26;38.53;;;34.23;;
15905;SDS011;8051;50.820;4.884;2022-12-18T07:49:54;36.47;;;32.53;;
15905;SDS011;8051;50.820;4.884;2022-12-18T07:52:22;38.47;;;34.67;;
15905;SDS011;8051;50.820;4.884;2022-12-18T07:54:53;44.03;;;37.47;;
15905;SDS011;8051;50.820;4.884;2022-12-18T07:57:21;39.00;;;35.03;;
15905;SDS011;8051;50.820;4.884;2022-12-18T07:59:48;38.80;;;34.97;;
15905;SDS011;8051;50.820;4.884;2022-12-18T08:02:15;39.30;;;34.27;;
15905;SDS011;8051;50.820;4.884;2022-12-18T08:04:43;38.27;;;34.33;;
15905;SDS011;8051;50.820;4.884;2022-12-18T08:07:10;38.83;;;33.60;;
15905;SDS011;8051;50.820;4.884;2022-12-18T08:09:37;46.80;;;33.60;;
15905;SDS011;8051;50.820;4.884;2022-12-18T08:12:06;37.23;;;33.47;;
15905;SDS011;8051;50.820;4.884;2022-12-18T08:14:34;44.60;;;36.53;;
15905;SDS011;8051;50.820;4.884;2022-12-18T08:17:01;42.57;;;37.90;;
15905;SDS011;8051;50.820;4.884;2022-12-18T08:19:29;51.83;;;37.80;;
15905;SDS011;8051;50.820;4.884;2022-12-18T08:21:56;42.17;;;37.13;;
15905;SDS011;8051;50.820;4.884;2022-12-18T08:24:23;44.73;;;35.17;;
15905;SDS011;8051;50.820;4.884;2022-12-18T08:26:51;41.97;;;35.33;;
15905;SDS011;8051;50.820;4.884;2022-12-18T08:29:20;51.80;;;35.83;;
15905;SDS011;8051;50.820;4.884;2022-12-18T08:31:47;42.93;;;36.63;;
15905;SDS011;8051;50.820;4.884;2022-12-18T08:34:15;56.40;;;43.40;;
15905;SDS011;8051;50.820;4.884;2022-12-18T08:36:42;43.07;;;36.60;;
15905;SDS011;8051;50.820;4.884;2022-12-18T08:39:10;44.00;;;35.90;;
15905;SDS011;8051;50.820;4.884;2022-12-18T08:41:37;38.53;;;34.73;;
15905;SDS011;8051;50.820;4.884;2022-12-18T08:44:06;40.43;;;36.13;;
15905;SDS011;8051;50.820;4.884;2022-12-18T08:46:52;40.20;;;33.33;;
15905;SDS011;8051;50.820;4.884;2022-12-18T08:49:20;39.60;;;33.60;;
15905;SDS011;8051;50.820;4.884;2022-12-18T08:51:47;38.40;;;34.27;;
15905;SDS011;8051;50.820;4.884;2022-12-18T08:54:14;44.57;;;37.37;;
15905;SDS011;8051;50.820;4.884;2022-12-18T08:56:41;41.87;;;34.60;;
15905;SDS011;8051;50.820;4.884;2022-12-18T08:59:09;37.97;;;33.83;;
15905;SDS011;8051;50.820;4.884;2022-12-18T09:01:36;46.87;;;37.57;;
15905;SDS011;8051;50.820;4.884;2022-12-18T09:04:05;41.07;;;36.63;;
15905;SDS011;8051;50.820;4.884;2022-12-18T09:06:34;41.97;;;34.17;;
15905;SDS011;8051;50.820;4.884;2022-12-18T09:09:01;41.43;;;35.97;;
15905;SDS011;8051;50.820;4.884;2022-12-18T09:11:30;47.07;;;39.77;;
15905;SDS011;8051;50.820;4.884;2022-12-18T09:13:58;43.83;;;39.20;;
15905;SDS011;8051;50.820;4.884;2022-12-18T09:16:27;46.27;;;38.30;;
15905;SDS011;8051;50.820;4.884;2022-12-18T09:18:56;45.07;;;37.83;;
15905;SDS011;8051;50.820;4.884;2022-12-18T09:21:27;45.73;;;38.83;;
15905;SDS011;8051;50.820;4.884;2022-12-18T09:23:57;44.37;;;36.17;;
15905;SDS011;8051;50.820;4.884;2022-12-18T09:26:25;42.60;;;35.37;;
15905;SDS011;8051;50.820;4.884;2022-12-18T09:28:52;43.87;;;36.23;;
15905;SDS011;8051;50.820;4.884;2022-12-18T09:31:22;45.03;;;34.83;;
15905;SDS011;8051;50.820;4.884;2022-12-18T09:33:50;41.27;;;36.13;;
15905;SDS011;8051;50.820;4.884;2022-12-18T09:36:18;40.53;;;35.87;;
15905;SDS011;8051;50.820;4.884;2022-12-18T09:38:47;48.77;;;35.23;;
15905;SDS011;8051;50.820;4.884;2022-12-18T09:41:21;44.77;;;33.37;;
15905;SDS011;8051;50.820;4.884;2022-12-18T09:44:01;39.57;;;32.23;;
15905;SDS011;8051;50.820;4.884;2022-12-18T09:46:33;43.33;;;34.13;;
15905;SDS011;8051;50.820;4.884;2022-12-18T09:49:05;43.70;;;35.90;;
15905;SDS011;8051;50.820;4.884;2022-12-18T09:51:39;38.53;;;34.63;;
15905;SDS011;8051;50.820;4.884;2022-12-18T09:54:13;40.07;;;32.93;;
15905;SDS011;8051;50.820;4.884;2022-12-18T09:56:50;35.43;;;31.70;;
15905;SDS011;8051;50.820;4.884;2022-12-18T09:59:22;35.07;;;30.90;;
15905;SDS011;8051;50.820;4.884;2022-12-18T10:01:53;34.20;;;30.80;;
15905;SDS011;8051;50.820;4.884;2022-12-18T10:04:20;34.40;;;30.63;;
15905;SDS011;8051;50.820;4.884;2022-12-18T10:06:50;32.80;;;29.40;;
15905;SDS011;8051;50.820;4.884;2022-12-18T10:09:27;32.93;;;29.43;;
15905;SDS011;8051;50.820;4.884;2022-12-18T10:12:01;32.50;;;27.93;;
15905;SDS011;8051;50.820;4.884;2022-12-18T10:14:35;35.30;;;31.47;;
15905;SDS011;8051;50.820;4.884;2022-12-18T10:17:11;35.63;;;31.87;;
15905;SDS011;8051;50.820;4.884;2022-12-18T10:19:46;34.30;;;30.93;;
15905;SDS011;8051;50.820;4.884;2022-12-18T10:22:20;37.30;;;32.93;;
15905;SDS011;8051;50.820;4.884;2022-12-18T10:24:57;35.57;;;31.97;;
15905;SDS011;8051;50.820;4.884;2022-12-18T10:27:29;35.60;;;31.93;;
15905;SDS011;8051;50.820;4.884;2022-12-18T10:29:57;33.83;;;30.83;;
15905;SDS011;8051;50.820;4.884;2022-12-18T10:32:27;33.73;;;30.70;;
15905;SDS011;8051;50.820;4.884;2022-12-18T10:34:57;33.63;;;30.03;;
15905;SDS011;8051;50.820;4.884;2022-12-18T10:37:25;42.20;;;31.50;;
15905;SDS011;8051;50.820;4.884;2022-12-18T10:40:10;34.47;;;31.07;;
15905;SDS011;8051;50.820;4.884;2022-12-18T10:42:38;35.90;;;30.23;;
15905;SDS011;8051;50.820;4.884;2022-12-18T10:45:09;37.07;;;33.13;;
15905;SDS011;8051;50.820;4.884;2022-12-18T10:47:41;33.97;;;30.50;;
15905;SDS011;8051;50.820;4.884;2022-12-18T10:50:17;39.50;;;32.37;;
15905;SDS011;8051;50.820;4.884;2022-12-18T10:52:53;39.20;;;33.00;;
15905;SDS011;8051;50.820;4.884;2022-12-18T10:55:23;37.83;;;33.17;;
15905;SDS011;8051;50.820;4.884;2022-12-18T10:58:08;36.37;;;32.77;;
15905;SDS011;8051;50.820;4.884;2022-12-18T11:00:43;35.33;;;31.67;;
15905;SDS011;8051;50.820;4.884;2022-12-18T11:06:05;36.00;;;32.47;;
15905;SDS011;8051;50.820;4.884;2022-12-18T11:08:35;35.97;;;32.23;;
15905;SDS011;8051;50.820;4.884;2022-12-18T11:11:07;34.27;;;30.87;;
15905;SDS011;8051;50.820;4.884;2022-12-18T11:13:42;36.63;;;32.97;;
15905;SDS011;8051;50.820;4.884;2022-12-18T11:16:23;40.73;;;35.73;;
15905;SDS011;8051;50.820;4.884;2022-12-18T11:18:50;40.60;;;36.50;;
15905;SDS011;8051;50.820;4.884;2022-12-18T11:21:18;43.90;;;35.93;;
15905;SDS011;8051;50.820;4.884;2022-12-18T11:23:46;38.07;;;33.97;;
15905;SDS011;8051;50.820;4.884;2022-12-18T11:26:18;39.10;;;34.83;;
15905;SDS011;8051;50.820;4.884;2022-12-18T11:28:47;39.97;;;32.20;;
15905;SDS011;8051;50.820;4.884;2022-12-18T11:31:19;37.30;;;33.57;;
15905;SDS011;8051;50.820;4.884;2022-12-18T11:36:39;38.23;;;34.37;;
15905;SDS011;8051;50.820;4.884;2022-12-18T11:39:11;38.93;;;33.90;;
15905;SDS011;8051;50.820;4.884;2022-12-18T11:41:47;36.03;;;32.50;;
15905;SDS011;8051;50.820;4.884;2022-12-18T11:44:39;36.43;;;32.77;;
15905;SDS011;8051;50.820;4.884;2022-12-18T11:47:15;36.80;;;33.40;;
15905;SDS011;8051;50.820;4.884;2022-12-18T11:49:50;39.07;;;35.13;;
15905;SDS011;8051;50.820;4.884;2022-12-18T11:52:19;39.00;;;35.30;;
15905;SDS011;8051;50.820;4.884;2022-12-18T11:54:51;39.10;;;35.03;;
15905;SDS011;8051;50.820;4.884;2022-12-18T11:57:24;39.83;;;35.90;;
15905;SDS011;8051;50.820;4.884;2022-12-18T12:00:02;38.10;;;34.37;;
15905;SDS011;8051;50.820;4.884;2022-12-18T12:02:43;37.03;;;33.40;;
15905;SDS011;8051;50.820;4.884;2022-12-18T12:05:37;41.70;;;36.60;;
15905;SDS011;8051;50.820;4.884;2022-12-18T12:08:20;37.17;;;33.57;;
15905;SDS011;8051;50.820;4.884;2022-12-18T12:10:56;39.60;;;35.93;;
15905;SDS011;8051;50.820;4.884;2022-12-18T12:13:36;40.53;;;36.50;;
15905;SDS011;8051;50.820;4.884;2022-12-18T12:16:13;39.73;;;35.87;;
15905;SDS011;8051;50.820;4.884;2022-12-18T12:18:51;42.03;;;37.30;;
15905;SDS011;8051;50.820;4.884;2022-12-18T12:21:33;44.43;;;37.40;;
15905;SDS011;8051;50.820;4.884;2022-12-18T12:24:10;39.20;;;35.23;;
15905;SDS011;8051;50.820;4.884;2022-12-18T12:26:49;41.13;;;36.60;;
15905;SDS011;8051;50.820;4.884;2022-12-18T12:29:29;38.87;;;34.97;;
15905;SDS011;8051;50.820;4.884;2022-12-18T12:32:12;40.50;;;36.13;;
15905;SDS011;8051;50.820;4.884;2022-12-18T12:34:51;38.70;;;34.90;;
15905;SDS011;8051;50.820;4.884;2022-12-18T12:37:27;41.93;;;37.27;;
15905;SDS011;8051;50.820;4.884;2022-12-18T12:40:03;41.87;;;36.90;;
15905;SDS011;8051;50.820;4.884;2022-12-18T12:42:32;41.70;;;37.20;;
15905;SDS011;8051;50.820;4.884;2022-12-18T12:45:25;40.50;;;36.40;;
15905;SDS011;8051;50.820;4.884;2022-12-18T12:47:57;43.50;;;39.00;;
15905;SDS011;8051;50.820;4.884;2022-12-18T12:50:25;45.10;;;39.13;;
15905;SDS011;8051;50.820;4.884;2022-12-18T12:52:54;40.37;;;36.50;;
15905;SDS011;8051;50.820;4.884;2022-12-18T12:55:24;43.67;;;39.23;;
15905;SDS011;8051;50.820;4.884;2022-12-18T12:57:58;41.23;;;37.17;;
15905;SDS011;8051;50.820;4.884;2022-12-18T13:00:36;44.40;;;39.87;;
15905;SDS011;8051;50.820;4.884;2022-12-18T13:03:12;42.97;;;38.67;;
15905;SDS011;8051;50.820;4.884;2022-12-18T13:05:51;43.73;;;39.47;;
15905;SDS011;8051;50.820;4.884;2022-12-18T13:08:23;44.20;;;39.50;;
15905;SDS011;8051;50.820;4.884;2022-12-18T13:10:52;43.60;;;39.40;;
15905;SDS011;8051;50.820;4.884;2022-12-18T13:13:49;43.50;;;39.03;;
15905;SDS011;8051;50.820;4.884;2022-12-18T13:16:20;46.60;;;41.73;;
15905;SDS011;8051;50.820;4.884;2022-12-18T13:18:49;43.27;;;39.07;;
15905;SDS011;8051;50.820;4.884;2022-12-18T13:21:20;45.00;;;40.77;;
15905;SDS011;8051;50.820;4.884;2022-12-18T13:23:52;45.50;;;40.67;;
15905;SDS011;8051;50.820;4.884;2022-12-18T13:26:30;44.43;;;39.93;;
15905;SDS011;8051;50.820;4.884;2022-12-18T13:28:59;41.20;;;36.97;;
15905;SDS011;8051;50.820;4.884;2022-12-18T13:34:36;39.50;;;35.53;;
15905;SDS011;8051;50.820;4.884;2022-12-18T13:43:28;38.20;;;34.33;;
15905;SDS011;8051;50.820;4.884;2022-12-18T13:46:00;40.20;;;36.17;;
15905;SDS011;8051;50.820;4.884;2022-12-18T13:48:31;38.47;;;34.80;;
15905;SDS011;8051;50.820;4.884;2022-12-18T13:51:03;39.20;;;35.60;;
15905;SDS011;8051;50.820;4.884;2022-12-18T13:53:36;39.80;;;35.87;;
15905;SDS011;8051;50.820;4.884;2022-12-18T13:56:08;36.60;;;32.63;;
15905;SDS011;8051;50.820;4.884;2022-12-18T13:58:41;38.63;;;34.90;;
15905;SDS011;8051;50.820;4.884;2022-12-18T14:01:15;39.70;;;35.60;;
15905;SDS011;8051;50.820;4.884;2022-12-18T14:03:49;39.07;;;35.53;;
15905;SDS011;8051;50.820;4.884;2022-12-18T14:06:18;39.57;;;35.70;;
15905;SDS011;8051;50.820;4.884;2022-12-18T14:08:46;38.67;;;34.67;;
15905;SDS011;8051;50.820;4.884;2022-12-18T14:11:18;39.50;;;35.57;;
15905;SDS011;8051;50.820;4.884;2022-12-18T14:13:48;41.20;;;37.03;;
15905;SDS011;8051;50.820;4.884;2022-12-18T14:16:16;38.13;;;34.57;;
15905;SDS011;8051;50.820;4.884;2022-12-18T14:18:44;36.47;;;32.77;;
15905;SDS011;8051;50.820;4.884;2022-12-18T14:21:18;38.97;;;34.93;;
15905;SDS011;8051;50.820;4.884;2022-12-18T14:23:48;37.57;;;33.97;;
15905;SDS011;8051;50.820;4.884;2022-12-18T14:26:29;37.33;;;33.33;;
15905;SDS011;8051;50.820;4.884;2022-12-18T14:28:59;39.93;;;35.63;;
15905;SDS011;8051;50.820;4.884;2022-12-18T14:31:28;38.63;;;34.93;;
15905;SDS011;8051;50.820;4.884;2022-12-18T14:33:57;38.77;;;34.77;;
15905;SDS011;8051;50.820;4.884;2022-12-18T14:36:26;37.27;;;33.77;;
15905;SDS011;8051;50.820;4.884;2022-12-18T14:38:55;38.90;;;34.93;;
15905;SDS011;8051;50.820;4.884;2022-12-18T14:41:24;38.73;;;34.73;;
15905;SDS011;8051;50.820;4.884;2022-12-18T14:43:53;37.50;;;33.80;;
15905;SDS011;8051;50.820;4.884;2022-12-18T14:46:28;39.70;;;35.77;;
15905;SDS011;8051;50.820;4.884;2022-12-18T14:48:59;37.37;;;33.53;;
15905;SDS011;8051;50.820;4.884;2022-12-18T14:51:30;36.93;;;32.87;;
15905;SDS011;8051;50.820;4.884;2022-12-18T14:53:59;37.47;;;33.67;;
15905;SDS011;8051;50.820;4.884;2022-12-18T14:56:29;37.93;;;34.33;;
15905;SDS011;8051;50.820;4.884;2022-12-18T14:58:58;38.63;;;34.27;;
15905;SDS011;8051;50.820;4.884;2022-12-18T15:01:28;38.40;;;34.57;;
15905;SDS011;8051;50.820;4.884;2022-12-18T15:03:58;38.67;;;34.60;;
15905;SDS011;8051;50.820;4.884;2022-12-18T15:06:28;36.83;;;33.20;;
15905;SDS011;8051;50.820;4.884;2022-12-18T15:08:59;38.03;;;33.93;;
15905;SDS011;8051;50.820;4.884;2022-12-18T15:11:33;38.57;;;34.60;;